sensor_id;sensor_type;location;lat;lon;timestamp;pressure;altitude;pressure_sealevel;temperature;humidity
56831;BME280;42713;42.676;23.352;2022-09-01T00:02:07;94596.34;;;19.36;72.42
56831;BME280;42713;42.676;23.352;2022-09-01T00:04:36;94595.56;;;19.35;72.95
56831;BME280;42713;42.676;23.352;2022-09-01T00:07:05;94596.78;;;19.29;73.19
56831;BME280;42713;42.676;23.352;2022-09-01T00:09:31;94592.72;;;19.32;73.14
56831;BME280;42713;42.676;23.352;2022-09-01T00:11:57;94601.47;;;19.32;72.54
56831;BME280;42713;42.676;23.352;2022-09-01T00:14:26;94593.13;;;19.25;73.13
56831;BME280;42713;42.676;23.352;2022-09-01T00:16:53;94595.91;;;19.20;73.59
56831;BME280;42713;42.676;23.352;2022-09-01T00:19:19;94585.28;;;19.20;73.30
56831;BME280;42713;42.676;23.352;2022-09-01T00:21:45;94585.28;;;19.20;73.04
56831;BME280;42713;42.676;23.352;2022-09-01T00:24:14;94590.13;;;19.18;72.96
56831;BME280;42713;42.676;23.352;2022-09-01T00:26:40;94577.25;;;19.11;73.23
56831;BME280;42713;42.676;23.352;2022-09-01T00:29:05;94579.72;;;19.07;73.45
56831;BME280;42713;42.676;23.352;2022-09-01T00:31:31;94590.22;;;19.12;72.93
56831;BME280;42713;42.676;23.352;2022-09-01T00:33:58;94589.25;;;19.08;73.62
56831;BME280;42713;42.676;23.352;2022-09-01T00:36:24;94589.06;;;19.05;73.56
56831;BME280;42713;42.676;23.352;2022-09-01T00:38:51;94586.50;;;19.00;73.91
56831;BME280;42713;42.676;23.352;2022-09-01T00:41:18;94591.06;;;18.99;74.32
56831;BME280;42713;42.676;23.352;2022-09-01T00:46:14;94592.31;;;19.02;73.14
56831;BME280;42713;42.676;23.352;2022-09-01T00:48:40;94601.75;;;18.94;73.83
56831;BME280;42713;42.676;23.352;2022-09-01T00:51:08;94606.34;;;18.88;74.11
56831;BME280;42713;42.676;23.352;2022-09-01T00:53:35;94608.34;;;18.82;74.54
56831;BME280;42713;42.676;23.352;2022-09-01T00:56:03;94602.94;;;18.74;75.06
56831;BME280;42713;42.676;23.352;2022-09-01T00:58:30;94607.47;;;18.73;74.65
56831;BME280;42713;42.676;23.352;2022-09-01T01:00:56;94610.91;;;18.74;74.78
56831;BME280;42713;42.676;23.352;2022-09-01T01:03:23;94607.75;;;18.72;74.59
56831;BME280;42713;42.676;23.352;2022-09-01T01:05:53;94600.19;;;18.65;74.77
56831;BME280;42713;42.676;23.352;2022-09-01T01:08:23;94606.59;;;18.64;74.92
56831;BME280;42713;42.676;23.352;2022-09-01T01:11:19;94608.47;;;18.63;74.52
56831;BME280;42713;42.676;23.352;2022-09-01T01:14:02;94618.19;;;18.68;74.48
56831;BME280;42713;42.676;23.352;2022-09-01T01:16:38;94609.53;;;18.62;74.90
56831;BME280;42713;42.676;23.352;2022-09-01T01:22:13;94613.66;;;18.55;74.50
56831;BME280;42713;42.676;23.352;2022-09-01T01:25:01;94608.47;;;18.49;74.27
56831;BME280;42713;42.676;23.352;2022-09-01T01:27:32;94603.16;;;18.49;74.53
56831;BME280;42713;42.676;23.352;2022-09-01T01:30:03;94615.94;;;18.47;74.39
56831;BME280;42713;42.676;23.352;2022-09-01T01:32:29;94615.63;;;18.49;74.23
56831;BME280;42713;42.676;23.352;2022-09-01T01:34:55;94611.69;;;18.46;74.27
56831;BME280;42713;42.676;23.352;2022-09-01T01:37:21;94606.00;;;18.53;73.36
56831;BME280;42713;42.676;23.352;2022-09-01T01:39:50;94616.31;;;18.55;73.29
56831;BME280;42713;42.676;23.352;2022-09-01T01:42:15;94613.16;;;18.52;73.76
56831;BME280;42713;42.676;23.352;2022-09-01T01:44:41;94616.44;;;18.49;74.31
56831;BME280;42713;42.676;23.352;2022-09-01T01:47:10;94615.53;;;18.54;73.78
56831;BME280;42713;42.676;23.352;2022-09-01T01:49:38;94620.03;;;18.54;73.92
56831;BME280;42713;42.676;23.352;2022-09-01T01:52:08;94619.66;;;18.46;74.29
56831;BME280;42713;42.676;23.352;2022-09-01T01:54:34;94626.84;;;18.46;74.26
56831;BME280;42713;42.676;23.352;2022-09-01T01:57:02;94632.16;;;18.46;74.25
56831;BME280;42713;42.676;23.352;2022-09-01T01:59:32;94628.69;;;18.45;74.54
56831;BME280;42713;42.676;23.352;2022-09-01T02:01:58;94635.06;;;18.44;74.18
56831;BME280;42713;42.676;23.352;2022-09-01T02:04:28;94631.16;;;18.42;74.51
56831;BME280;42713;42.676;23.352;2022-09-01T02:06:58;94632.53;;;18.39;74.74
56831;BME280;42713;42.676;23.352;2022-09-01T02:09:24;94634.78;;;18.46;73.98
56831;BME280;42713;42.676;23.352;2022-09-01T02:11:50;94629.56;;;18.41;73.89
56831;BME280;42713;42.676;23.352;2022-09-01T02:14:22;94636.34;;;18.47;73.02
56831;BME280;42713;42.676;23.352;2022-09-01T02:16:48;94629.56;;;18.41;74.03
56831;BME280;42713;42.676;23.352;2022-09-01T02:19:13;94638.81;;;18.43;73.25
56831;BME280;42713;42.676;23.352;2022-09-01T02:21:39;94635.44;;;18.38;73.58
56831;BME280;42713;42.676;23.352;2022-09-01T02:24:08;94637.22;;;18.28;74.09
56831;BME280;42713;42.676;23.352;2022-09-01T02:26:43;94640.47;;;18.25;74.13
56831;BME280;42713;42.676;23.352;2022-09-01T02:29:15;94639.41;;;18.26;73.80
56831;BME280;42713;42.676;23.352;2022-09-01T02:31:47;94628.09;;;18.20;73.77
56831;BME280;42713;42.676;23.352;2022-09-01T02:34:14;94634.38;;;18.25;73.71
56831;BME280;42713;42.676;23.352;2022-09-01T02:36:42;94633.09;;;18.22;73.89
56831;BME280;42713;42.676;23.352;2022-09-01T02:39:30;94628.88;;;18.21;73.87
56831;BME280;42713;42.676;23.352;2022-09-01T02:41:59;94628.09;;;18.20;73.59
56831;BME280;42713;42.676;23.352;2022-09-01T02:44:25;94620.91;;;18.21;73.62
56831;BME280;42713;42.676;23.352;2022-09-01T02:46:51;94618.75;;;18.23;73.02
56831;BME280;42713;42.676;23.352;2022-09-01T02:49:20;94614.72;;;18.26;73.00
56831;BME280;42713;42.676;23.352;2022-09-01T02:51:53;94613.75;;;18.22;72.86
56831;BME280;42713;42.676;23.352;2022-09-01T02:54:22;94610.63;;;18.19;72.64
56831;BME280;42713;42.676;23.352;2022-09-01T02:56:49;94615.53;;;18.12;73.56
56831;BME280;42713;42.676;23.352;2022-09-01T02:59:18;94618.44;;;18.11;73.31
56831;BME280;42713;42.676;23.352;2022-09-01T03:01:46;94611.28;;;18.11;73.08
56831;BME280;42713;42.676;23.352;2022-09-01T03:04:13;94606.75;;;18.12;73.28
56831;BME280;42713;42.676;23.352;2022-09-01T03:06:39;94611.56;;;18.10;73.45
56831;BME280;42713;42.676;23.352;2022-09-01T03:09:11;94612.06;;;18.12;72.80
56831;BME280;42713;42.676;23.352;2022-09-01T03:11:40;94609.78;;;18.05;73.68
56831;BME280;42713;42.676;23.352;2022-09-01T03:14:07;94619.31;;;18.06;73.26
56831;BME280;42713;42.676;23.352;2022-09-01T03:16:35;94611.66;;;18.04;73.75
56831;BME280;42713;42.676;23.352;2022-09-01T03:19:02;94614.91;;;18.01;73.18
56831;BME280;42713;42.676;23.352;2022-09-01T03:21:29;94609.16;;;17.94;73.84
56831;BME280;42713;42.676;23.352;2022-09-01T03:23:57;94617.13;;;17.94;74.23
56831;BME280;42713;42.676;23.352;2022-09-01T03:26:26;94618.19;;;17.93;73.69
56831;BME280;42713;42.676;23.352;2022-09-01T03:28:51;94617.66;;;17.96;72.64
56831;BME280;42713;42.676;23.352;2022-09-01T03:31:18;94616.31;;;17.94;72.99
56831;BME280;42713;42.676;23.352;2022-09-01T03:33:45;94622.72;;;17.93;73.33
56831;BME280;42713;42.676;23.352;2022-09-01T03:36:10;94624.06;;;17.90;72.67
56831;BME280;42713;42.676;23.352;2022-09-01T03:38:48;94625.44;;;17.87;72.72
56831;BME280;42713;42.676;23.352;2022-09-01T03:41:20;94622.59;;;17.84;72.91
56831;BME280;42713;42.676;23.352;2022-09-01T03:43:47;94624.72;;;17.82;73.01
56831;BME280;42713;42.676;23.352;2022-09-01T03:46:14;94624.94;;;17.85;72.89
56831;BME280;42713;42.676;23.352;2022-09-01T03:48:44;94618.88;;;17.85;73.68
56831;BME280;42713;42.676;23.352;2022-09-01T03:51:10;94613.63;;;17.80;74.16
56831;BME280;42713;42.676;23.352;2022-09-01T03:53:38;94616.88;;;17.77;74.28
56831;BME280;42713;42.676;23.352;2022-09-01T03:56:04;94625.19;;;17.70;75.14
56831;BME280;42713;42.676;23.352;2022-09-01T03:58:31;94622.41;;;17.61;75.13
56831;BME280;42713;42.676;23.352;2022-09-01T04:00:58;94617.97;;;17.56;75.97
56831;BME280;42713;42.676;23.352;2022-09-01T04:03:28;94623.47;;;17.60;75.47
56831;BME280;42713;42.676;23.352;2022-09-01T04:05:57;94615.53;;;17.60;75.44
56831;BME280;42713;42.676;23.352;2022-09-01T04:08:23;94620.63;;;17.56;75.28
56831;BME280;42713;42.676;23.352;2022-09-01T04:10:52;94632.50;;;17.59;75.43
56831;BME280;42713;42.676;23.352;2022-09-01T04:15:49;94632.22;;;17.61;75.12
56831;BME280;42713;42.676;23.352;2022-09-01T04:18:15;94635.38;;;17.63;75.35
56831;BME280;42713;42.676;23.352;2022-09-01T04:20:47;94627.00;;;17.55;75.45
56831;BME280;42713;42.676;23.352;2022-09-01T04:23:28;94628.28;;;17.58;75.67
56831;BME280;42713;42.676;23.352;2022-09-01T04:26:08;94627.59;;;17.52;76.14
56831;BME280;42713;42.676;23.352;2022-09-01T04:28:40;94626.28;;;17.50;77.00
56831;BME280;42713;42.676;23.352;2022-09-01T04:31:07;94632.28;;;17.55;76.70
56831;BME280;42713;42.676;23.352;2022-09-01T04:33:35;94627.34;;;17.49;77.02
56831;BME280;42713;42.676;23.352;2022-09-01T04:36:04;94621.22;;;17.53;77.04
56831;BME280;42713;42.676;23.352;2022-09-01T04:38:30;94629.63;;;17.55;76.93
56831;BME280;42713;42.676;23.352;2022-09-01T04:41:03;94622.19;;;17.57;77.05
56831;BME280;42713;42.676;23.352;2022-09-01T04:43:28;94621.22;;;17.53;77.75
56831;BME280;42713;42.676;23.352;2022-09-01T04:45:54;94633.59;;;17.58;77.70
56831;BME280;42713;42.676;23.352;2022-09-01T04:48:23;94629.06;;;17.58;77.71
56831;BME280;42713;42.676;23.352;2022-09-01T04:50:50;94622.34;;;17.66;77.37
56831;BME280;42713;42.676;23.352;2022-09-01T04:53:17;94623.25;;;17.76;77.20
56831;BME280;42713;42.676;23.352;2022-09-01T04:55:44;94616.94;;;17.71;77.58
56831;BME280;42713;42.676;23.352;2022-09-01T04:58:14;94625.69;;;17.72;77.55
56831;BME280;42713;42.676;23.352;2022-09-01T05:00:45;94628.34;;;17.72;77.94
56831;BME280;42713;42.676;23.352;2022-09-01T05:03:12;94623.53;;;17.74;77.85
56831;BME280;42713;42.676;23.352;2022-09-01T05:05:41;94619.44;;;17.82;77.37
56831;BME280;42713;42.676;23.352;2022-09-01T05:08:13;94617.28;;;17.84;77.38
56831;BME280;42713;42.676;23.352;2022-09-01T05:10:44;94623.84;;;17.86;78.16
56831;BME280;42713;42.676;23.352;2022-09-01T05:13:12;94624.16;;;17.85;78.05
56831;BME280;42713;42.676;23.352;2022-09-01T05:15:39;94623.50;;;17.93;77.71
56831;BME280;42713;42.676;23.352;2022-09-01T05:18:18;94626.56;;;18.00;77.97
56831;BME280;42713;42.676;23.352;2022-09-01T05:20:53;94625.00;;;17.99;77.93
56831;BME280;42713;42.676;23.352;2022-09-01T05:23:20;94619.41;;;18.01;77.95
56831;BME280;42713;42.676;23.352;2022-09-01T05:25:48;94623.47;;;18.12;77.93
56831;BME280;42713;42.676;23.352;2022-09-01T05:28:16;94628.66;;;18.17;77.49
56831;BME280;42713;42.676;23.352;2022-09-01T05:30:45;94628.56;;;18.23;77.15
56831;BME280;42713;42.676;23.352;2022-09-01T05:33:13;94620.16;;;18.34;76.69
56831;BME280;42713;42.676;23.352;2022-09-01T05:35:42;94624.56;;;18.39;76.15
56831;BME280;42713;42.676;23.352;2022-09-01T05:38:16;94616.69;;;18.48;75.72
56831;BME280;42713;42.676;23.352;2022-09-01T05:40:43;94616.81;;;18.57;75.47
56831;BME280;42713;42.676;23.352;2022-09-01T05:43:10;94614.16;;;18.57;75.26
56831;BME280;42713;42.676;23.352;2022-09-01T05:45:40;94606.88;;;18.62;75.20
56831;BME280;42713;42.676;23.352;2022-09-01T05:48:09;94614.72;;;18.67;74.98
56831;BME280;42713;42.676;23.352;2022-09-01T05:50:39;94619.94;;;18.73;74.89
56831;BME280;42713;42.676;23.352;2022-09-01T05:53:08;94618.56;;;18.75;75.06
56831;BME280;42713;42.676;23.352;2022-09-01T05:55:36;94625.31;;;18.81;74.66
56831;BME280;42713;42.676;23.352;2022-09-01T05:58:02;94622.91;;;18.85;74.47
56831;BME280;42713;42.676;23.352;2022-09-01T06:00:28;94623.28;;;18.92;74.26
56831;BME280;42713;42.676;23.352;2022-09-01T06:02:59;94624.56;;;18.95;73.73
56831;BME280;42713;42.676;23.352;2022-09-01T06:05:26;94619.94;;;19.01;73.27
56831;BME280;42713;42.676;23.352;2022-09-01T06:07:53;94613.75;;;19.05;73.40
56831;BME280;42713;42.676;23.352;2022-09-01T06:10:19;94611.25;;;19.09;73.33
56831;BME280;42713;42.676;23.352;2022-09-01T06:12:45;94607.13;;;19.17;73.37
56831;BME280;42713;42.676;23.352;2022-09-01T06:15:12;94608.09;;;19.21;73.25
56831;BME280;42713;42.676;23.352;2022-09-01T06:17:40;94609.25;;;19.28;73.17
56831;BME280;42713;42.676;23.352;2022-09-01T06:20:07;94608.53;;;19.37;72.44
56831;BME280;42713;42.676;23.352;2022-09-01T06:22:36;94612.84;;;19.47;72.22
56831;BME280;42713;42.676;23.352;2022-09-01T06:25:01;94607.88;;;19.54;71.21
56831;BME280;42713;42.676;23.352;2022-09-01T06:27:32;94605.41;;;19.57;71.12
56831;BME280;42713;42.676;23.352;2022-09-01T06:29:57;94612.63;;;19.66;70.96
56831;BME280;42713;42.676;23.352;2022-09-01T06:32:23;94611.56;;;19.67;69.95
56831;BME280;42713;42.676;23.352;2022-09-01T06:34:50;94616.28;;;19.70;70.05
56831;BME280;42713;42.676;23.352;2022-09-01T06:37:17;94616.75;;;19.72;70.31
56831;BME280;42713;42.676;23.352;2022-09-01T06:39:47;94607.22;;;19.71;70.12
56831;BME280;42713;42.676;23.352;2022-09-01T06:42:12;94603.66;;;19.75;70.15
56831;BME280;42713;42.676;23.352;2022-09-01T06:44:39;94597.75;;;19.79;69.71
56831;BME280;42713;42.676;23.352;2022-09-01T06:47:05;94593.50;;;19.78;69.78
56831;BME280;42713;42.676;23.352;2022-09-01T06:49:33;94591.44;;;19.74;69.86
56831;BME280;42713;42.676;23.352;2022-09-01T06:52:01;94597.44;;;19.80;70.11
56831;BME280;42713;42.676;23.352;2022-09-01T06:54:30;94594.47;;;19.82;69.88
56831;BME280;42713;42.676;23.352;2022-09-01T06:57:01;94606.88;;;19.86;69.81
56831;BME280;42713;42.676;23.352;2022-09-01T06:59:30;94604.50;;;19.85;70.17
56831;BME280;42713;42.676;23.352;2022-09-01T07:01:57;94599.19;;;19.85;70.03
56831;BME280;42713;42.676;23.352;2022-09-01T07:04:27;94605.00;;;19.87;70.10
56831;BME280;42713;42.676;23.352;2022-09-01T07:06:54;94607.03;;;19.90;69.92
56831;BME280;42713;42.676;23.352;2022-09-01T07:09:20;94604.56;;;19.94;69.57
56831;BME280;42713;42.676;23.352;2022-09-01T07:11:45;94605.53;;;19.98;69.69
56831;BME280;42713;42.676;23.352;2022-09-01T07:14:11;94606.00;;;20.00;69.74
56831;BME280;42713;42.676;23.352;2022-09-01T07:16:41;94600.56;;;20.05;69.93
56831;BME280;42713;42.676;23.352;2022-09-01T07:19:09;94595.41;;;20.09;69.50
56831;BME280;42713;42.676;23.352;2022-09-01T07:21:39;94601.69;;;20.13;69.36
56831;BME280;42713;42.676;23.352;2022-09-01T07:24:05;94593.41;;;20.14;69.02
56831;BME280;42713;42.676;23.352;2022-09-01T07:26:32;94600.16;;;20.20;69.17
56831;BME280;42713;42.676;23.352;2022-09-01T07:29:01;94595.34;;;20.23;69.00
56831;BME280;42713;42.676;23.352;2022-09-01T07:31:34;94584.06;;;20.26;69.09
56831;BME280;42713;42.676;23.352;2022-09-01T07:34:02;94589.59;;;20.38;68.93
56831;BME280;42713;42.676;23.352;2022-09-01T07:36:31;94596.66;;;20.43;68.54
56831;BME280;42713;42.676;23.352;2022-09-01T07:38:58;94589.00;;;20.50;68.21
56831;BME280;42713;42.676;23.352;2022-09-01T07:41:27;94590.75;;;20.55;68.21
56831;BME280;42713;42.676;23.352;2022-09-01T07:43:52;94581.38;;;20.57;68.17
56831;BME280;42713;42.676;23.352;2022-09-01T07:46:21;94594.69;;;20.57;67.35
56831;BME280;42713;42.676;23.352;2022-09-01T07:48:48;94595.28;;;20.54;67.59
56831;BME280;42713;42.676;23.352;2022-09-01T07:51:17;94591.66;;;20.50;67.39
56831;BME280;42713;42.676;23.352;2022-09-01T07:53:45;94593.72;;;20.53;67.64
56831;BME280;42713;42.676;23.352;2022-09-01T07:56:13;94588.88;;;20.55;67.77
56831;BME280;42713;42.676;23.352;2022-09-01T07:58:40;94587.94;;;20.60;67.94
56831;BME280;42713;42.676;23.352;2022-09-01T08:01:12;94586.69;;;20.66;67.28
56831;BME280;42713;42.676;23.352;2022-09-01T08:03:39;94597.97;;;20.63;66.89
56831;BME280;42713;42.676;23.352;2022-09-01T08:06:07;94598.88;;;20.58;67.66
56831;BME280;42713;42.676;23.352;2022-09-01T08:08:34;94601.41;;;20.63;67.02
56831;BME280;42713;42.676;23.352;2022-09-01T08:11:00;94597.34;;;20.66;67.46
56831;BME280;42713;42.676;23.352;2022-09-01T08:13:26;94595.53;;;20.75;68.06
56831;BME280;42713;42.676;23.352;2022-09-01T08:15:52;94592.72;;;20.80;67.64
56831;BME280;42713;42.676;23.352;2022-09-01T08:18:17;94582.25;;;20.84;66.29
56831;BME280;42713;42.676;23.352;2022-09-01T08:20:43;94577.22;;;20.82;67.11
56831;BME280;42713;42.676;23.352;2022-09-01T08:23:14;94585.53;;;20.90;67.18
56831;BME280;42713;42.676;23.352;2022-09-01T08:25:41;94586.19;;;20.95;66.88
56831;BME280;42713;42.676;23.352;2022-09-01T08:28:08;94591.00;;;21.02;65.76
56831;BME280;42713;42.676;23.352;2022-09-01T08:30:34;94577.88;;;21.06;65.15
56831;BME280;42713;42.676;23.352;2022-09-01T08:33:02;94585.09;;;20.96;64.70
56831;BME280;42713;42.676;23.352;2022-09-01T08:35:28;94577.88;;;20.97;64.99
56831;BME280;42713;42.676;23.352;2022-09-01T08:37:54;94575.53;;;21.04;65.26
56831;BME280;42713;42.676;23.352;2022-09-01T08:40:20;94569.25;;;21.09;65.08
56831;BME280;42713;42.676;23.352;2022-09-01T08:43:25;94577.41;;;21.21;65.02
56831;BME280;42713;42.676;23.352;2022-09-01T08:45:53;94570.19;;;21.30;65.03
56831;BME280;42713;42.676;23.352;2022-09-01T08:48:23;94574.59;;;21.35;63.19
56831;BME280;42713;42.676;23.352;2022-09-01T08:51:17;94565.66;;;21.40;62.67
56831;BME280;42713;42.676;23.352;2022-09-01T08:53:59;94565.81;;;21.52;63.16
56831;BME280;42713;42.676;23.352;2022-09-01T08:56:25;94553.41;;;21.56;62.39
56831;BME280;42713;42.676;23.352;2022-09-01T08:58:52;94557.50;;;21.63;61.24
56831;BME280;42713;42.676;23.352;2022-09-01T09:01:27;94555.63;;;21.63;61.55
56831;BME280;42713;42.676;23.352;2022-09-01T09:04:18;94543.53;;;21.74;60.95
56831;BME280;42713;42.676;23.352;2022-09-01T09:09:32;94537.03;;;22.02;61.91
56831;BME280;42713;42.676;23.352;2022-09-01T09:12:08;94536.06;;;22.06;61.85
56831;BME280;42713;42.676;23.352;2022-09-01T09:17:12;94538.47;;;22.29;60.41
56831;BME280;42713;42.676;23.352;2022-09-01T09:19:41;94534.53;;;22.35;60.48
56831;BME280;42713;42.676;23.352;2022-09-01T09:22:18;94536.53;;;22.47;60.37
56831;BME280;42713;42.676;23.352;2022-09-01T09:25:05;94527.03;;;22.59;59.79
56831;BME280;42713;42.676;23.352;2022-09-01T09:27:44;94527.63;;;22.64;58.11
56831;BME280;42713;42.676;23.352;2022-09-01T09:32:58;94524.13;;;22.73;57.34
56831;BME280;42713;42.676;23.352;2022-09-01T09:35:42;94523.53;;;22.88;57.14
56831;BME280;42713;42.676;23.352;2022-09-01T09:38:21;94519.59;;;22.94;57.66
56831;BME280;42713;42.676;23.352;2022-09-01T09:51:35;94512.78;;;23.39;56.10
56831;BME280;42713;42.676;23.352;2022-09-01T09:54:20;94502.78;;;23.49;55.06
56831;BME280;42713;42.676;23.352;2022-09-01T09:56:47;94513.19;;;23.62;54.24
56831;BME280;42713;42.676;23.352;2022-09-01T09:59:29;94509.19;;;23.69;53.02
56831;BME280;42713;42.676;23.352;2022-09-01T10:01:59;94512.31;;;23.71;54.28
56831;BME280;42713;42.676;23.352;2022-09-01T10:04:38;94502.84;;;23.73;54.75
56831;BME280;42713;42.676;23.352;2022-09-01T10:07:23;94502.97;;;23.77;54.74
56831;BME280;42713;42.676;23.352;2022-09-01T10:09:51;94500.97;;;23.86;54.14
56831;BME280;42713;42.676;23.352;2022-09-01T10:12:17;94496.31;;;23.96;53.15
56831;BME280;42713;42.676;23.352;2022-09-01T10:15:14;94493.78;;;24.12;52.70
56831;BME280;42713;42.676;23.352;2022-09-01T10:17:42;94497.25;;;24.24;51.65
56831;BME280;42713;42.676;23.352;2022-09-01T10:20:14;94492.09;;;24.19;50.55
56831;BME280;42713;42.676;23.352;2022-09-01T10:22:41;94495.69;;;24.23;50.13
56831;BME280;42713;42.676;23.352;2022-09-01T10:25:12;94482.50;;;24.18;50.81
56831;BME280;42713;42.676;23.352;2022-09-01T10:27:42;94494.13;;;24.22;50.20
56831;BME280;42713;42.676;23.352;2022-09-01T10:30:16;94485.09;;;24.15;50.64
56831;BME280;42713;42.676;23.352;2022-09-01T10:32:45;94486.09;;;24.10;50.46
56831;BME280;42713;42.676;23.352;2022-09-01T10:35:15;94486.53;;;24.12;48.78
56831;BME280;42713;42.676;23.352;2022-09-01T10:37:45;94476.03;;;24.07;49.39
56831;BME280;42713;42.676;23.352;2022-09-01T10:40:36;94485.06;;;24.02;49.68
56831;BME280;42713;42.676;23.352;2022-09-01T10:45:50;94480.06;;;24.01;50.40
56831;BME280;42713;42.676;23.352;2022-09-01T10:48:28;94482.41;;;24.02;51.47
56831;BME280;42713;42.676;23.352;2022-09-01T10:53:53;94474.38;;;24.02;50.59
56831;BME280;42713;42.676;23.352;2022-09-01T10:59:05;94473.72;;;24.05;49.52
56831;BME280;42713;42.676;23.352;2022-09-01T11:12:07;94461.25;;;24.75;48.48
56831;BME280;42713;42.676;23.352;2022-09-01T11:17:23;94454.81;;;25.05;49.12
56831;BME280;42713;42.676;23.352;2022-09-01T11:22:33;94447.53;;;25.33;47.71
56831;BME280;42713;42.676;23.352;2022-09-01T11:28:01;94440.41;;;25.54;48.14
56831;BME280;42713;42.676;23.352;2022-09-01T11:30:32;94438.31;;;25.63;47.52
56831;BME280;42713;42.676;23.352;2022-09-01T11:33:12;94432.97;;;25.79;47.40
56831;BME280;42713;42.676;23.352;2022-09-01T11:35:44;94436.53;;;25.99;50.46
56831;BME280;42713;42.676;23.352;2022-09-01T11:38:14;94424.16;;;26.10;49.46
56831;BME280;42713;42.676;23.352;2022-09-01T11:40:40;94418.66;;;26.23;52.18
56831;BME280;42713;42.676;23.352;2022-09-01T11:43:13;94418.41;;;26.28;52.77
56831;BME280;42713;42.676;23.352;2022-09-01T11:46:01;94417.22;;;26.25;52.13
56831;BME280;42713;42.676;23.352;2022-09-01T11:48:28;94408.28;;;26.21;49.58
56831;BME280;42713;42.676;23.352;2022-09-01T11:50:57;94407.66;;;26.28;51.20
56831;BME280;42713;42.676;23.352;2022-09-01T11:53:24;94400.44;;;26.32;50.41
56831;BME280;42713;42.676;23.352;2022-09-01T11:55:52;94402.38;;;26.32;47.19
56831;BME280;42713;42.676;23.352;2022-09-01T12:00:55;94391.84;;;26.42;51.36
56831;BME280;42713;42.676;23.352;2022-09-01T12:03:28;94398.66;;;26.56;51.47
56831;BME280;42713;42.676;23.352;2022-09-01T12:05:56;94391.28;;;26.72;48.34
56831;BME280;42713;42.676;23.352;2022-09-01T12:08:26;94395.63;;;26.77;49.87
56831;BME280;42713;42.676;23.352;2022-09-01T12:11:09;94393.06;;;26.84;51.25
56831;BME280;42713;42.676;23.352;2022-09-01T12:13:37;94392.09;;;26.93;49.98
56831;BME280;42713;42.676;23.352;2022-09-01T12:16:06;94391.44;;;26.99;50.60
56831;BME280;42713;42.676;23.352;2022-09-01T12:18:42;94386.41;;;27.17;51.31
56831;BME280;42713;42.676;23.352;2022-09-01T12:21:42;94385.75;;;27.24;50.24
56831;BME280;42713;42.676;23.352;2022-09-01T12:24:21;94385.75;;;27.24;50.25
56831;BME280;42713;42.676;23.352;2022-09-01T12:26:49;94389.22;;;27.25;49.88
56831;BME280;42713;42.676;23.352;2022-09-01T12:29:16;94385.03;;;27.27;50.05
56831;BME280;42713;42.676;23.352;2022-09-01T12:31:44;94380.91;;;27.33;50.12
56831;BME280;42713;42.676;23.352;2022-09-01T12:39:42;94379.28;;;27.48;49.45
56831;BME280;42713;42.676;23.352;2022-09-01T12:42:30;94379.13;;;27.41;48.68
56831;BME280;42713;42.676;23.352;2022-09-01T12:50:05;94377.75;;;27.28;51.29
56831;BME280;42713;42.676;23.352;2022-09-01T12:52:33;94380.38;;;27.24;51.46
56831;BME280;42713;42.676;23.352;2022-09-01T13:02:48;94369.25;;;27.02;52.23
56831;BME280;42713;42.676;23.352;2022-09-01T13:07:52;94374.66;;;27.06;51.00
56831;BME280;42713;42.676;23.352;2022-09-01T13:10:19;94375.03;;;27.05;50.36
56831;BME280;42713;42.676;23.352;2022-09-01T13:12:45;94366.59;;;27.06;51.70
56831;BME280;42713;42.676;23.352;2022-09-01T13:15:11;94357.84;;;27.09;51.62
56831;BME280;42713;42.676;23.352;2022-09-01T13:17:38;94356.34;;;27.12;51.18
56831;BME280;42713;42.676;23.352;2022-09-01T13:20:05;94358.00;;;27.20;50.73
56831;BME280;42713;42.676;23.352;2022-09-01T13:22:32;94347.41;;;27.27;51.61
56831;BME280;42713;42.676;23.352;2022-09-01T13:24:57;94343.91;;;27.27;50.20
56831;BME280;42713;42.676;23.352;2022-09-01T13:27:23;94347.53;;;27.34;49.63
56831;BME280;42713;42.676;23.352;2022-09-01T13:29:49;94347.06;;;27.52;49.39
56831;BME280;42713;42.676;23.352;2022-09-01T13:32:16;94352.66;;;27.67;46.25
56831;BME280;42713;42.676;23.352;2022-09-01T13:34:43;94356.44;;;27.62;45.46
56831;BME280;42713;42.676;23.352;2022-09-01T13:37:08;94353.66;;;27.82;46.56
56831;BME280;42713;42.676;23.352;2022-09-01T13:39:33;94350.19;;;28.08;47.72
56831;BME280;42713;42.676;23.352;2022-09-01T13:41:59;94357.31;;;28.54;45.42
56831;BME280;42713;42.676;23.352;2022-09-01T13:44:24;94356.31;;;29.00;45.22
56831;BME280;42713;42.676;23.352;2022-09-01T13:46:50;94355.22;;;29.46;42.06
56831;BME280;42713;42.676;23.352;2022-09-01T13:49:15;94346.97;;;29.76;41.27
56831;BME280;42713;42.676;23.352;2022-09-01T13:51:41;94347.63;;;29.59;40.03
56831;BME280;42713;42.676;23.352;2022-09-01T13:54:06;94355.34;;;29.60;41.60
56831;BME280;42713;42.676;23.352;2022-09-01T13:56:32;94362.72;;;29.26;42.23
56831;BME280;42713;42.676;23.352;2022-09-01T13:58:57;94360.88;;;28.96;43.04
56831;BME280;42713;42.676;23.352;2022-09-01T14:01:23;94341.44;;;28.76;43.48
56831;BME280;42713;42.676;23.352;2022-09-01T14:03:49;94346.91;;;28.52;43.44
56831;BME280;42713;42.676;23.352;2022-09-01T14:06:14;94351.56;;;28.25;44.38
56831;BME280;42713;42.676;23.352;2022-09-01T14:08:40;94355.00;;;27.95;44.41
56831;BME280;42713;42.676;23.352;2022-09-01T14:11:06;94362.63;;;27.66;44.49
56831;BME280;42713;42.676;23.352;2022-09-01T14:13:32;94354.50;;;27.39;44.36
56831;BME280;42713;42.676;23.352;2022-09-01T14:15:58;94359.75;;;27.09;44.46
56831;BME280;42713;42.676;23.352;2022-09-01T14:18:24;94359.81;;;26.89;45.30
56831;BME280;42713;42.676;23.352;2022-09-01T14:20:57;94360.38;;;26.79;46.31